sensor_id;sensor_type;location;lat;lon;timestamp;P1;P2;P0
65360;PMS5003;51958;55.018;73.536;2023-02-01T07:06:07;17.50;15.50;8.00
65360;PMS5003;51958;55.018;73.536;2023-02-01T07:20:59;10.00;7.00;2.00
65360;PMS5003;51958;55.018;73.536;2023-02-01T07:31:12;6.00;4.00;2.00
65360;PMS5003;51958;55.018;73.536;2023-02-01T07:36:07;7.00;5.00;2.00
65360;PMS5003;51958;55.018;73.536;2023-02-01T07:38:35;8.00;6.00;3.00
65360;PMS5003;51958;55.018;73.536;2023-02-01T07:43:35;7.00;5.00;2.00
65360;PMS5003;51958;55.018;73.536;2023-02-01T07:51:02;9.00;8.00;2.00
65360;PMS5003;51958;55.018;73.536;2023-02-01T07:53:34;8.00;6.00;1.00
65360;PMS5003;51958;55.018;73.536;2023-02-01T07:56:09;8.00;6.00;2.00
65360;PMS5003;51958;55.018;73.536;2023-02-01T07:58:35;6.00;6.00;2.00
65360;PMS5003;51958;55.018;73.536;2023-02-01T08:01:01;6.00;5.00;2.00
65360;PMS5003;51958;55.018;73.536;2023-02-01T08:03:56;6.00;5.00;2.00
65360;PMS5003;51958;55.018;73.536;2023-02-01T08:06:30;6.00;6.00;2.00
65360;PMS5003;51958;55.018;73.536;2023-02-01T08:08:56;6.00;6.00;2.00
65360;PMS5003;51958;55.018;73.536;2023-02-01T08:11:22;6.67;6.00;2.00
65360;PMS5003;51958;55.018;73.536;2023-02-01T08:13:48;6.33;5.33;2.67
65360;PMS5003;51958;55.018;73.536;2023-02-01T08:16:15;7.00;5.00;2.00
65360;PMS5003;51958;55.018;73.536;2023-02-01T08:18:41;5.00;4.00;2.00
65360;PMS5003;51958;55.018;73.536;2023-02-01T08:21:16;6.67;5.00;2.00
65360;PMS5003;51958;55.018;73.536;2023-02-01T08:23:45;6.00;6.00;3.00
65360;PMS5003;51958;55.018;73.536;2023-02-01T08:28:38;7.33;6.00;3.00
65360;PMS5003;51958;55.018;73.536;2023-02-01T08:31:12;6.00;5.00;2.67
65360;PMS5003;51958;55.018;73.536;2023-02-01T08:33:40;8.00;6.00;3.00
65360;PMS5003;51958;55.018;73.536;2023-02-01T08:36:06;6.00;4.33;2.00
65360;PMS5003;51958;55.018;73.536;2023-02-01T08:38:42;4.00;4.00;2.00
65360;PMS5003;51958;55.018;73.536;2023-02-01T08:41:20;6.00;5.33;2.33
65360;PMS5003;51958;55.018;73.536;2023-02-01T08:43:46;6.00;5.67;3.33
65360;PMS5003;51958;55.018;73.536;2023-02-01T08:46:13;7.67;6.00;2.00
65360;PMS5003;51958;55.018;73.536;2023-02-01T08:48:39;6.33;6.00;3.00
65360;PMS5003;51958;55.018;73.536;2023-02-01T08:51:18;8.00;7.00;4.00
65360;PMS5003;51958;55.018;73.536;2023-02-01T08:53:44;11.00;9.33;4.33
65360;PMS5003;51958;55.018;73.536;2023-02-01T08:56:11;13.00;11.67;4.67
65360;PMS5003;51958;55.018;73.536;2023-02-01T08:58:37;13.00;12.00;5.00
65360;PMS5003;51958;55.018;73.536;2023-02-01T09:01:09;13.00;11.00;5.00
65360;PMS5003;51958;55.018;73.536;2023-02-01T09:03:35;14.00;11.67;4.00
65360;PMS5003;51958;55.018;73.536;2023-02-01T09:06:05;13.00;13.00;5.00
65360;PMS5003;51958;55.018;73.536;2023-02-01T09:08:32;13.00;13.00;6.00
65360;PMS5003;51958;55.018;73.536;2023-02-01T09:10:59;15.33;12.33;5.33
65360;PMS5003;51958;55.018;73.536;2023-02-01T09:13:25;15.00;13.00;6.00
65360;PMS5003;51958;55.018;73.536;2023-02-01T09:15:53;15.00;13.00;5.00
65360;PMS5003;51958;55.018;73.536;2023-02-01T09:18:19;13.33;11.67;5.33
65360;PMS5003;51958;55.018;73.536;2023-02-01T09:20:44;14.00;11.00;6.00
65360;PMS5003;51958;55.018;73.536;2023-02-01T09:23:10;12.33;11.00;4.00
65360;PMS5003;51958;55.018;73.536;2023-02-01T09:25:46;13.00;12.00;5.00
65360;PMS5003;51958;55.018;73.536;2023-02-01T09:28:15;14.00;13.00;5.33
65360;PMS5003;51958;55.018;73.536;2023-02-01T09:30:48;13.67;13.00;4.00
65360;PMS5003;51958;55.018;73.536;2023-02-01T09:33:13;15.33;13.00;5.00
65360;PMS5003;51958;55.018;73.536;2023-02-01T09:35:39;14.00;12.00;5.00
65360;PMS5003;51958;55.018;73.536;2023-02-01T09:38:09;15.33;13.00;6.00
65360;PMS5003;51958;55.018;73.536;2023-02-01T09:40:39;15.00;12.00;5.00
65360;PMS5003;51958;55.018;73.536;2023-02-01T09:43:21;16.33;13.00;7.00
65360;PMS5003;51958;55.018;73.536;2023-02-01T09:48:36;19.00;15.33;8.00
65360;PMS5003;51958;55.018;73.536;2023-02-01T09:51:04;17.67;15.00;7.00
65360;PMS5003;51958;55.018;73.536;2023-02-01T09:54:05;16.67;15.33;7.00
65360;PMS5003;51958;55.018;73.536;2023-02-01T09:56:23;18.00;15.00;6.00
65360;PMS5003;51958;55.018;73.536;2023-02-01T10:01:21;16.00;13.00;6.67
65360;PMS5003;51958;55.018;73.536;2023-02-01T10:03:50;15.00;13.00;5.00
65360;PMS5003;51958;55.018;73.536;2023-02-01T10:06:31;13.00;11.00;4.00
65360;PMS5003;51958;55.018;73.536;2023-02-01T10:22:02;17.00;14.00;6.00
65360;PMS5003;51958;55.018;73.536;2023-02-01T10:27:19;18.50;17.00;7.00
65360;PMS5003;51958;55.018;73.536;2023-02-01T10:32:34;18.00;16.00;8.00
65360;PMS5003;51958;55.018;73.536;2023-02-01T10:35:13;17.00;15.00;6.00
65360;PMS5003;51958;55.018;73.536;2023-02-01T10:40:53;14.00;12.00;4.00
65360;PMS5003;51958;55.018;73.536;2023-02-01T10:45:50;13.00;12.00;4.00
